Weather at Kotoka International Airport

Public forecast

Using degrees Celsius for public forecast. Weather courtesy of forecast.io.

Current aviation weather report (METAR) for Kotoka International Airport

Report is more than 6 hours old.

2022/11/14 15:00 (retrieved 2 years ago)

DGAA 141500Z 15009KT 130V190 9999 FEW017 FEW030CB 29/25 Q1010 NOSIG

Aviation forecast (TAF) for Kotoka International Airport

Forecast is more than 12 hours old.

2023/02/22 18:22 (retrieved 1 year ago)

TAF DGAA 221700Z 2218/2324 19012KT 8000 FEW010 PROB30 2306/2309 26010KT 3000 BR BECMG 2311/2313 19013KT 2000 HZ NSC